createdAt,value
2022-10-21T00:01:15.956Z,9.50
2022-10-21T00:03:49.526Z,11.10
2022-10-21T00:06:24.471Z,8.50
2022-10-21T00:08:57.129Z,8.33
2022-10-21T00:11:29.978Z,9.27
2022-10-21T00:14:03.177Z,11.33
2022-10-21T00:16:36.216Z,9.17
2022-10-21T00:19:14.998Z,10.83
2022-10-21T00:21:49.032Z,11.40
2022-10-21T00:24:27.827Z,10.13
2022-10-21T00:27:04.736Z,11.93
2022-10-21T00:29:39.502Z,8.63
2022-10-21T00:32:12.520Z,8.20
2022-10-21T00:34:45.230Z,8.83
2022-10-21T00:37:19.245Z,8.93
2022-10-21T00:39:52.327Z,9.70
2022-10-21T00:42:32.994Z,10.07
2022-10-21T00:45:19.399Z,13.80
2022-10-21T00:47:57.287Z,9.87
2022-10-21T00:50:40.180Z,9.03
2022-10-21T00:53:16.903Z,11.60
2022-10-21T00:55:51.569Z,8.80
2022-10-21T00:58:26.377Z,9.50
2022-10-21T01:01:00.228Z,9.57
2022-10-21T01:03:36.551Z,13.37
2022-10-21T01:06:14.042Z,12.87
2022-10-21T01:08:48.201Z,12.40
2022-10-21T01:11:21.108Z,10.70
2022-10-21T01:14:06.060Z,10.03
2022-10-21T01:16:47.361Z,10.00
2022-10-21T01:19:40.958Z,10.00
2022-10-21T01:22:19.279Z,10.57
2022-10-21T01:25:04.286Z,9.90
2022-10-21T01:27:42.900Z,16.97
2022-10-21T01:30:19.097Z,9.80
2022-10-21T01:33:15.298Z,8.70
2022-10-21T01:35:49.937Z,9.13
2022-10-21T01:38:25.584Z,10.53
2022-10-21T01:41:05.341Z,9.37
2022-10-21T01:43:40.314Z,9.70
2022-10-21T01:46:14.262Z,9.97
2022-10-21T01:48:51.033Z,10.67
2022-10-21T01:54:06.002Z,10.57
2022-10-21T01:56:40.019Z,9.33
2022-10-21T01:59:14.274Z,12.60
2022-10-21T02:01:49.981Z,10.80
2022-10-21T02:04:24.345Z,10.00
2022-10-21T02:07:00.112Z,10.23
2022-10-21T02:09:35.690Z,11.20
2022-10-21T02:12:08.700Z,10.83
2022-10-21T02:14:46.052Z,13.20
2022-10-21T02:17:19.985Z,9.83
2022-10-21T02:19:55.660Z,8.43
2022-10-21T02:22:29.474Z,10.93
2022-10-21T02:25:06.657Z,11.50
2022-10-21T02:27:39.448Z,10.30
2022-10-21T02:30:12.164Z,11.53
2022-10-21T02:32:49.896Z,9.70
2022-10-21T02:35:34.978Z,11.03
2022-10-21T02:38:18.469Z,10.93
2022-10-21T02:40:52.124Z,9.50
2022-10-21T02:43:27.291Z,11.53
2022-10-21T02:46:03.480Z,10.20
2022-10-21T02:48:38.606Z,10.20
2022-10-21T02:51:12.822Z,10.17
2022-10-21T02:53:45.619Z,13.30
2022-10-21T02:56:18.264Z,12.57
2022-10-21T02:58:50.788Z,11.30
2022-10-21T03:01:23.594Z,10.87
2022-10-21T03:03:56.319Z,11.33
2022-10-21T03:06:30.335Z,9.63
2022-10-21T03:09:03.367Z,10.27
2022-10-21T03:11:36.046Z,10.07
2022-10-21T03:14:08.737Z,12.17
2022-10-21T03:16:41.509Z,9.73
2022-10-21T03:19:14.299Z,10.70
2022-10-21T03:21:48.367Z,10.80
2022-10-21T03:24:28.498Z,11.53
2022-10-21T03:27:01.762Z,12.27
2022-10-21T03:29:34.363Z,12.70
2022-10-21T03:32:09.755Z,10.93
2022-10-21T03:34:42.439Z,10.83
2022-10-21T03:37:16.524Z,11.13
2022-10-21T03:39:49.172Z,10.90
2022-10-21T03:42:24.592Z,11.53
2022-10-21T03:44:57.266Z,12.83
2022-10-21T03:47:29.954Z,10.27
2022-10-21T03:50:04.586Z,10.87
2022-10-21T03:52:40.939Z,10.77
2022-10-21T03:55:13.934Z,13.03
2022-10-21T03:57:46.567Z,11.57
2022-10-21T04:00:19.523Z,12.53
2022-10-21T04:02:54.324Z,12.40
2022-10-21T04:05:27.059Z,11.30
2022-10-21T04:08:01.010Z,10.33
2022-10-21T04:10:33.650Z,14.27
2022-10-21T04:13:06.268Z,12.30
2022-10-21T04:15:41.429Z,10.90
2022-10-21T04:18:14.064Z,11.37
2022-10-21T04:20:46.702Z,14.23
2022-10-21T04:23:20.691Z,11.07
2022-10-21T04:25:53.401Z,12.13
2022-10-21T04:28:26.235Z,11.30
2022-10-21T04:30:58.940Z,13.43
2022-10-21T04:33:31.715Z,13.27
2022-10-21T04:36:04.534Z,11.90
2022-10-21T04:38:38.702Z,14.17
2022-10-21T04:41:11.297Z,13.10
2022-10-21T04:43:44.088Z,12.50
2022-10-21T04:46:17.172Z,11.50
2022-10-21T04:48:49.773Z,11.03
2022-10-21T04:51:22.624Z,11.30
2022-10-21T04:53:56.630Z,11.47
2022-10-21T04:56:29.257Z,12.10
2022-10-21T04:59:01.826Z,12.50
2022-10-21T05:01:34.644Z,12.47
2022-10-21T05:04:07.368Z,14.07
2022-10-21T05:06:40.064Z,11.80
2022-10-21T05:09:14.147Z,15.70
2022-10-21T05:11:46.969Z,12.87
2022-10-21T05:14:22.831Z,11.80
2022-10-21T05:16:56.070Z,12.67
2022-10-21T05:19:31.279Z,11.80
2022-10-21T05:22:04.454Z,12.57
2022-10-21T05:24:38.537Z,11.57
2022-10-21T05:27:14.368Z,12.17
2022-10-21T05:29:46.956Z,13.63
2022-10-21T05:32:21.693Z,14.30
2022-10-21T05:34:57.224Z,12.27
2022-10-21T05:37:32.602Z,15.33
2022-10-21T05:40:08.518Z,11.50
2022-10-21T05:42:41.312Z,11.30
2022-10-21T05:45:14.085Z,13.80
2022-10-21T05:47:46.965Z,13.13
2022-10-21T05:50:19.588Z,16.37
2022-10-21T05:52:53.147Z,15.53
2022-10-21T05:55:28.765Z,12.97
2022-10-21T05:58:01.648Z,16.00
2022-10-21T06:00:37.658Z,11.77
2022-10-21T06:03:10.561Z,13.27
2022-10-21T06:05:43.175Z,11.57
2022-10-21T06:08:16.055Z,17.23
2022-10-21T06:10:50.075Z,12.60
2022-10-21T06:13:22.690Z,11.80
2022-10-21T06:15:55.433Z,11.83
2022-10-21T06:18:30.625Z,11.33
2022-10-21T06:21:03.367Z,12.43
2022-10-21T06:23:36.096Z,13.30
2022-10-21T06:26:11.811Z,14.83
2022-10-21T06:28:44.913Z,12.00
2022-10-21T06:31:18.353Z,13.97
2022-10-21T06:33:51.112Z,13.47
2022-10-21T06:36:23.769Z,12.50
2022-10-21T06:38:59.540Z,12.83
2022-10-21T06:41:33.703Z,12.43
2022-10-21T06:44:06.514Z,12.77
2022-10-21T06:46:39.143Z,13.57
2022-10-21T06:49:12.109Z,14.13
2022-10-21T06:51:44.816Z,13.43
2022-10-21T06:54:17.492Z,14.20
2022-10-21T06:56:51.881Z,14.67
2022-10-21T06:59:24.958Z,14.33
2022-10-21T07:02:01.335Z,17.87
2022-10-21T07:04:34.272Z,17.03
2022-10-21T07:07:06.929Z,12.37
2022-10-21T07:09:39.837Z,16.33
2022-10-21T07:12:14.028Z,14.30
2022-10-21T07:14:46.584Z,13.67
2022-10-21T07:17:25.071Z,14.10
2022-10-21T07:19:57.732Z,14.47
2022-10-21T07:22:31.860Z,15.90
2022-10-21T07:25:04.704Z,13.67
2022-10-21T07:27:39.143Z,13.80
2022-10-21T07:30:16.192Z,16.13
2022-10-21T07:32:48.803Z,12.87
2022-10-21T07:35:21.629Z,15.87
2022-10-21T07:37:54.239Z,15.07
2022-10-21T07:40:28.353Z,16.50
2022-10-21T07:43:02.525Z,12.30
2022-10-21T07:45:35.670Z,16.23
2022-10-21T07:48:08.261Z,13.33
2022-10-21T07:50:41.032Z,14.93
2022-10-21T07:53:15.673Z,13.73
2022-10-21T07:55:48.536Z,13.00
2022-10-21T07:58:22.581Z,13.10
2022-10-21T08:00:58.259Z,12.53
2022-10-21T08:03:31.035Z,13.03
2022-10-21T08:06:04.646Z,13.00
2022-10-21T08:08:37.666Z,32.37
2022-10-21T08:11:10.582Z,16.67
2022-10-21T08:13:45.919Z,20.07
2022-10-21T08:16:21.583Z,12.87
2022-10-21T08:18:57.132Z,15.10
2022-10-21T08:21:31.761Z,12.67
2022-10-21T08:24:04.881Z,13.53
2022-10-21T08:26:37.587Z,13.47
2022-10-21T08:29:11.609Z,15.60
2022-10-21T08:31:44.791Z,13.67
2022-10-21T08:34:17.589Z,11.23
2022-10-21T08:36:50.315Z,14.17
2022-10-21T08:39:24.954Z,15.63
2022-10-21T08:42:02.800Z,13.40
2022-10-21T08:44:45.826Z,13.83
2022-10-21T08:47:21.250Z,16.67
2022-10-21T08:49:59.659Z,13.93
2022-10-21T08:52:39.113Z,9.93
2022-10-21T08:55:17.797Z,14.97
2022-10-21T08:57:51.358Z,12.17
2022-10-21T09:00:26.409Z,14.23
2022-10-21T09:03:02.623Z,15.63
2022-10-21T09:05:54.214Z,16.20
2022-10-21T09:08:30.965Z,15.43
2022-10-21T09:11:07.386Z,14.07
2022-10-21T09:13:53.830Z,14.07
2022-10-21T09:16:30.275Z,14.43
2022-10-21T09:19:05.597Z,19.97
2022-10-21T09:21:44.887Z,13.40
2022-10-21T09:24:20.376Z,14.10
2022-10-21T09:26:53.776Z,12.50
2022-10-21T09:29:30.546Z,12.27
2022-10-21T09:32:11.673Z,15.23
2022-10-21T09:34:50.012Z,15.07
2022-10-21T09:37:34.601Z,14.87
2022-10-21T09:40:16.292Z,13.77
2022-10-21T09:42:52.523Z,17.63
2022-10-21T09:45:29.390Z,13.87
2022-10-21T09:48:05.712Z,13.10
2022-10-21T09:50:38.911Z,13.80
2022-10-21T09:53:14.586Z,14.27
2022-10-21T09:55:48.796Z,16.57
2022-10-21T09:58:46.003Z,28.70
2022-10-21T10:01:20.424Z,15.07
2022-10-21T10:03:54.664Z,13.83
2022-10-21T10:06:35.745Z,16.70
2022-10-21T10:09:14.007Z,15.03
2022-10-21T10:11:51.243Z,19.00
2022-10-21T10:14:25.434Z,13.73
2022-10-21T10:16:58.995Z,15.37
2022-10-21T10:19:33.332Z,19.97
2022-10-21T10:22:12.965Z,14.47
2022-10-21T10:24:46.257Z,17.10
2022-10-21T10:27:20.748Z,13.53
2022-10-21T10:29:54.722Z,15.73
2022-10-21T10:32:32.015Z,12.17
2022-10-21T10:35:08.647Z,12.70
2022-10-21T10:37:48.805Z,12.13
2022-10-21T10:40:23.505Z,14.23
2022-10-21T10:42:59.263Z,13.50
2022-10-21T10:45:32.270Z,11.93
2022-10-21T10:48:09.400Z,12.27
2022-10-21T10:50:48.070Z,14.50
2022-10-21T10:53:27.543Z,12.40
2022-10-21T10:56:16.726Z,13.87
2022-10-21T10:58:52.364Z,24.47
2022-10-21T11:01:28.193Z,13.07
2022-10-21T11:04:07.352Z,14.07
2022-10-21T11:06:45.103Z,12.60
2022-10-21T11:09:19.536Z,30.33
2022-10-21T11:11:55.757Z,16.03
2022-10-21T11:14:28.558Z,17.13
2022-10-21T11:17:06.365Z,15.33
2022-10-21T11:19:44.535Z,13.60
2022-10-21T11:22:24.852Z,12.57
2022-10-21T11:24:59.786Z,13.43
2022-10-21T11:27:50.169Z,12.87
2022-10-21T11:30:23.865Z,14.23
2022-10-21T11:33:03.941Z,20.03
2022-10-21T11:35:41.663Z,14.00
2022-10-21T11:38:23.831Z,14.20
2022-10-21T11:40:58.669Z,14.10
2022-10-21T11:43:38.760Z,15.50
2022-10-21T11:46:13.589Z,14.50
2022-10-21T11:48:58.442Z,14.43
2022-10-21T11:51:35.672Z,21.13
2022-10-21T11:54:17.695Z,14.50
2022-10-21T11:56:53.366Z,14.20
2022-10-21T11:59:33.175Z,16.30
2022-10-21T12:02:12.434Z,13.07
2022-10-21T12:04:48.621Z,15.17
2022-10-21T12:07:29.048Z,12.10
2022-10-21T12:10:07.316Z,13.90
2022-10-21T12:12:41.963Z,13.80
2022-10-21T12:15:18.000Z,14.57
2022-10-21T12:17:51.175Z,14.67
2022-10-21T12:20:26.394Z,15.03
2022-10-21T12:23:01.300Z,13.27
2022-10-21T12:25:39.828Z,13.10
2022-10-21T12:28:14.957Z,14.70
2022-10-21T12:30:53.611Z,13.83
2022-10-21T12:33:32.774Z,13.93
2022-10-21T12:36:19.925Z,14.53
2022-10-21T12:38:53.434Z,19.17
2022-10-21T12:41:35.037Z,15.40
2022-10-21T12:44:16.992Z,16.43
2022-10-21T12:46:51.432Z,14.40
2022-10-21T12:49:30.600Z,15.57
2022-10-21T12:52:09.463Z,19.67
2022-10-21T12:54:44.479Z,14.43
2022-10-21T12:57:25.230Z,19.70
2022-10-21T13:00:31.361Z,20.57
2022-10-21T13:03:05.224Z,13.80
2022-10-21T13:05:56.829Z,14.13
2022-10-21T13:08:38.851Z,14.10
2022-10-21T13:11:22.776Z,12.63
2022-10-21T13:14:14.198Z,21.23
2022-10-21T13:16:48.570Z,15.30
2022-10-21T13:19:33.150Z,14.20
2022-10-21T13:22:12.070Z,15.97
2022-10-21T13:24:46.310Z,18.43
2022-10-21T13:27:29.410Z,15.87
2022-10-21T13:30:03.105Z,18.10
2022-10-21T13:32:38.006Z,14.33
2022-10-21T13:35:25.761Z,11.13
2022-10-21T13:38:00.528Z,13.13
2022-10-21T13:40:37.613Z,10.83
2022-10-21T13:43:14.515Z,12.80
2022-10-21T13:45:49.292Z,13.70
2022-10-21T13:48:25.571Z,12.07
2022-10-21T13:51:10.248Z,11.73
2022-10-21T13:53:48.645Z,15.47
2022-10-21T13:56:24.882Z,12.20
2022-10-21T13:58:58.095Z,13.17
2022-10-21T14:01:32.153Z,16.13
2022-10-21T14:04:14.141Z,12.87
2022-10-21T14:06:48.594Z,15.03
2022-10-21T14:09:23.653Z,14.17
2022-10-21T14:12:00.120Z,12.90
2022-10-21T14:14:38.105Z,13.40
2022-10-21T14:17:16.670Z,23.70
2022-10-21T14:19:52.275Z,20.70
2022-10-21T14:22:26.021Z,17.30
2022-10-21T14:25:01.808Z,14.67
2022-10-21T14:27:35.565Z,26.67
2022-10-21T14:30:10.394Z,17.47
2022-10-21T14:32:44.842Z,19.93
2022-10-21T14:35:29.423Z,16.60
2022-10-21T14:38:03.382Z,16.30
2022-10-21T14:40:37.944Z,17.77
2022-10-21T14:43:19.921Z,18.67
2022-10-21T14:45:53.800Z,12.97
2022-10-21T14:48:28.615Z,14.73
2022-10-21T14:51:04.008Z,11.97
2022-10-21T14:53:38.435Z,20.23
2022-10-21T14:56:14.767Z,18.50
2022-10-21T14:58:51.619Z,15.03
2022-10-21T15:01:24.839Z,12.47
2022-10-21T15:03:59.778Z,14.70
2022-10-21T15:06:35.379Z,17.90
2022-10-21T15:09:19.606Z,16.30
2022-10-21T15:11:52.485Z,12.70
2022-10-21T15:14:33.940Z,12.77
2022-10-21T15:17:10.993Z,14.13
2022-10-21T15:19:45.773Z,16.20
2022-10-21T15:22:28.471Z,15.13
2022-10-21T15:25:05.666Z,14.33
2022-10-21T15:27:42.397Z,14.63
2022-10-21T15:30:18.932Z,14.30
2022-10-21T15:32:52.893Z,12.97
2022-10-21T15:35:25.850Z,13.03
2022-10-21T15:38:00.924Z,17.93
2022-10-21T15:40:34.044Z,12.83
2022-10-21T15:43:06.753Z,14.43
2022-10-21T15:45:41.631Z,13.13
2022-10-21T15:48:15.079Z,14.57
2022-10-21T15:50:47.966Z,16.03
2022-10-21T15:53:21.983Z,18.43
2022-10-21T15:55:55.042Z,20.97
2022-10-21T15:58:28.090Z,49.53
2022-10-21T16:01:00.730Z,21.87
2022-10-21T16:03:33.637Z,20.07
2022-10-21T16:06:06.447Z,25.40
2022-10-21T16:08:40.269Z,29.97
2022-10-21T16:11:14.319Z,25.43
2022-10-21T16:13:49.520Z,31.47
2022-10-21T16:16:24.723Z,30.00
2022-10-21T16:18:57.428Z,42.97
2022-10-21T16:21:30.331Z,46.33
2022-10-21T16:24:04.535Z,29.27
2022-10-21T16:26:41.382Z,33.27
2022-10-21T16:31:55.277Z,19.73
2022-10-21T16:34:28.213Z,19.63
2022-10-21T16:37:01.010Z,18.43
2022-10-21T16:39:35.686Z,20.00
2022-10-21T16:42:11.289Z,27.83
2022-10-21T16:44:44.756Z,23.93
2022-10-21T16:47:18.247Z,25.93
2022-10-21T16:49:50.994Z,22.17
2022-10-21T16:52:25.499Z,21.50
2022-10-21T16:55:02.382Z,19.57
2022-10-21T16:57:34.938Z,19.50
2022-10-21T17:00:08.216Z,30.73
2022-10-21T17:02:41.031Z,25.37
2022-10-21T17:05:14.366Z,19.93
2022-10-21T17:07:47.073Z,24.80
2022-10-21T17:10:21.133Z,23.83
2022-10-21T17:12:58.846Z,18.13
2022-10-21T17:15:33.794Z,23.13
2022-10-21T17:18:06.658Z,22.03
2022-10-21T17:20:39.320Z,22.37
2022-10-21T17:23:12.687Z,32.03
2022-10-21T17:25:46.706Z,21.03
2022-10-21T17:28:19.361Z,23.27
2022-10-21T17:30:52.722Z,25.53
2022-10-21T17:33:28.387Z,20.70
2022-10-21T17:36:01.027Z,23.97
2022-10-21T17:38:33.899Z,20.70
2022-10-21T17:41:07.863Z,22.00
2022-10-21T17:43:40.602Z,20.63
2022-10-21T17:46:19.330Z,19.13
2022-10-21T17:48:52.011Z,23.83
2022-10-21T17:51:25.415Z,19.97
2022-10-21T17:53:59.414Z,25.00
2022-10-21T17:56:33.329Z,24.03
2022-10-21T17:59:06.359Z,23.53
2022-10-21T18:01:39.117Z,23.17
2022-10-21T18:04:12.311Z,17.40
2022-10-21T18:06:45.165Z,19.13
2022-10-21T18:09:17.911Z,20.87
2022-10-21T18:11:54.622Z,28.83
2022-10-21T18:14:27.383Z,22.50
2022-10-21T18:17:00.024Z,37.83
2022-10-21T18:19:33.852Z,25.93
2022-10-21T18:22:06.636Z,28.57
2022-10-21T18:24:39.357Z,31.33
2022-10-21T18:27:13.469Z,22.00
2022-10-21T18:29:46.199Z,24.87
2022-10-21T18:32:18.777Z,20.87
2022-10-21T18:34:51.691Z,20.97
2022-10-21T18:37:24.336Z,24.97
2022-10-21T18:39:59.134Z,21.80
2022-10-21T18:42:33.314Z,22.23
2022-10-21T18:45:09.434Z,20.37
2022-10-21T18:47:44.014Z,22.30
2022-10-21T18:50:16.821Z,19.23
2022-10-21T18:52:51.889Z,20.33
2022-10-21T18:55:24.404Z,21.37
2022-10-21T18:57:58.358Z,20.80
2022-10-21T19:00:32.876Z,21.03
2022-10-21T19:03:05.809Z,21.43
2022-10-21T19:05:40.146Z,21.47
2022-10-21T19:08:12.668Z,28.17
2022-10-21T19:10:45.353Z,23.07
2022-10-21T19:13:19.543Z,25.47
2022-10-21T19:15:52.126Z,22.97
2022-10-21T19:18:25.449Z,25.07
2022-10-21T19:20:58.096Z,23.73
2022-10-21T19:23:32.409Z,23.47
2022-10-21T19:26:05.532Z,23.03
2022-10-21T19:28:42.719Z,28.80
2022-10-21T19:31:15.833Z,32.33
2022-10-21T19:33:48.453Z,43.10
2022-10-21T19:36:23.388Z,32.23
2022-10-21T19:38:56.016Z,24.70
2022-10-21T19:41:28.808Z,27.63
2022-10-21T19:44:02.882Z,25.40
2022-10-21T19:46:36.103Z,23.87
2022-10-21T19:49:09.884Z,22.60
2022-10-21T19:51:42.648Z,25.97
2022-10-21T19:54:16.336Z,22.83
2022-10-21T19:56:51.370Z,22.83
2022-10-21T19:59:28.110Z,24.97
2022-10-21T20:02:00.686Z,22.33
2022-10-21T20:04:35.355Z,25.73
2022-10-21T20:07:08.769Z,23.30
2022-10-21T20:09:41.786Z,24.57
2022-10-21T20:12:14.440Z,23.30
2022-10-21T20:14:48.473Z,24.37
2022-10-21T20:17:21.183Z,22.53
2022-10-21T20:19:54.573Z,22.77
2022-10-21T20:22:27.431Z,23.97
2022-10-21T20:25:00.088Z,25.10
2022-10-21T20:27:32.754Z,24.27
2022-10-21T20:30:08.575Z,25.50
2022-10-21T20:32:43.052Z,22.93
2022-10-21T20:35:15.827Z,23.63
2022-10-21T20:37:48.623Z,25.87
2022-10-21T20:40:21.367Z,27.37
2022-10-21T20:42:54.116Z,26.47
2022-10-21T20:45:30.121Z,25.57
2022-10-21T20:48:02.936Z,22.67
2022-10-21T20:50:38.745Z,24.53
2022-10-21T20:53:11.478Z,23.53
2022-10-21T20:55:45.016Z,24.93
2022-10-21T20:58:20.606Z,26.97
2022-10-21T21:00:54.783Z,25.73
2022-10-21T21:03:27.373Z,24.50
2022-10-21T21:06:01.642Z,26.73
2022-10-21T21:08:35.120Z,27.43
2022-10-21T21:11:08.913Z,26.23
2022-10-21T21:13:43.519Z,28.53
2022-10-21T21:16:19.166Z,25.40
2022-10-21T21:18:52.646Z,26.43
2022-10-21T21:21:26.477Z,27.07
2022-10-21T21:23:59.648Z,25.07
2022-10-21T21:26:34.239Z,27.83
2022-10-21T21:29:07.558Z,29.63
2022-10-21T21:31:44.776Z,30.30
2022-10-21T21:34:17.501Z,28.23
2022-10-21T21:36:50.179Z,28.93
2022-10-21T21:39:23.366Z,28.10
2022-10-21T21:41:56.203Z,28.70
2022-10-21T21:44:28.965Z,26.63
2022-10-21T21:47:03.077Z,29.13
2022-10-21T21:49:40.468Z,29.00
2022-10-21T21:52:17.474Z,27.63
2022-10-21T21:54:54.331Z,27.60
2022-10-21T21:57:28.324Z,29.93
2022-10-21T22:00:01.323Z,28.77
2022-10-21T22:02:35.591Z,29.73
2022-10-21T22:05:08.580Z,27.33
2022-10-21T22:07:41.668Z,29.07
2022-10-21T22:10:15.549Z,30.87
2022-10-21T22:12:48.353Z,29.40
2022-10-21T22:15:43.227Z,29.57
2022-10-21T22:18:15.263Z,28.37
2022-10-21T22:20:47.977Z,29.77
2022-10-21T22:23:21.164Z,29.50
2022-10-21T22:25:53.832Z,31.90
2022-10-21T22:28:26.861Z,32.60
2022-10-21T22:31:00.386Z,27.73
2022-10-21T22:33:34.981Z,26.53
2022-10-21T22:36:08.329Z,26.93
2022-10-21T22:38:40.888Z,30.80
2022-10-21T22:41:13.971Z,29.57
2022-10-21T22:43:54.133Z,30.63
2022-10-21T22:46:35.132Z,29.67
2022-10-21T22:49:10.524Z,29.23
2022-10-21T22:51:43.391Z,25.73
2022-10-21T22:54:36.095Z,24.73
2022-10-21T22:57:09.172Z,24.40
2022-10-21T22:59:44.050Z,24.80
2022-10-21T23:02:17.815Z,27.87
2022-10-21T23:04:51.936Z,25.63
2022-10-21T23:07:24.544Z,27.60
2022-10-21T23:09:59.678Z,25.90
2022-10-21T23:12:32.293Z,27.97
2022-10-21T23:15:06.659Z,26.13
2022-10-21T23:17:39.329Z,24.87
2022-10-21T23:20:13.677Z,22.83
2022-10-21T23:22:46.280Z,24.10
2022-10-21T23:25:20.219Z,24.87
2022-10-21T23:27:52.762Z,23.20
2022-10-21T23:30:25.421Z,23.80
2022-10-21T23:33:00.506Z,25.10
2022-10-21T23:35:34.688Z,26.97
2022-10-21T23:38:07.664Z,24.83
2022-10-21T23:40:43.006Z,24.97
2022-10-21T23:43:15.590Z,27.47
2022-10-21T23:45:48.916Z,26.53
2022-10-21T23:48:21.530Z,25.73
2022-10-21T23:50:55.461Z,29.10
2022-10-21T23:53:28.215Z,30.50
2022-10-21T23:56:01.070Z,28.97
2022-10-21T23:58:33.923Z,25.13
